Terminal Aerodrome Forecast
Issued by NWS Indianapolis, IN

Home | Current Version | Previous Version | Text Only | Print | Product List | Glossary On
Versions: 1 2 3 4 5 6 7 8 9 10 11 12 13 14 15 16 17 18 19 20 21 22 23 24 25 26 27 28 29 30 31 32 33
000
FTUS43 KIND 201500 AAD
TAFIND
TAF AMD
KIND 201500Z 2015/2118 17006KT 4SM BR BCFG SCT004
     FM201530 18005KT P6SM SCT200
     FM210000 17005KT P6SM FEW050 FEW200=

USA.gov is the U.S. government's official web portal to all federal, state and local government web resources and services.